createdAt,value
2023-12-26T00:01:55.486Z,49.96
2023-12-26T00:04:22.924Z,49.80
2023-12-26T00:06:50.399Z,49.80
2023-12-26T00:09:17.102Z,49.44
2023-12-26T00:11:45.107Z,49.37
2023-12-26T00:14:12.865Z,48.40
2023-12-26T00:16:42.461Z,48.06
2023-12-26T00:19:09.544Z,48.01
2023-12-26T00:21:40.468Z,47.84
2023-12-26T00:24:07.963Z,47.79
2023-12-26T00:26:39.575Z,47.30
2023-12-26T00:29:07.157Z,46.76
2023-12-26T00:31:33.901Z,47.50
2023-12-26T00:34:01.190Z,44.93
2023-12-26T00:36:28.342Z,45.98
2023-12-26T00:38:57.514Z,47.84
2023-12-26T00:41:24.971Z,48.21
2023-12-26T00:43:51.789Z,49.14
2023-12-26T00:46:20.046Z,50.55
2023-12-26T00:48:46.959Z,51.57
2023-12-26T00:51:13.837Z,49.00
2023-12-26T00:53:40.685Z,51.20
2023-12-26T00:56:07.532Z,50.31
2023-12-26T00:58:35.047Z,49.75
2023-12-26T01:01:02.126Z,50.01
2023-12-26T01:03:29.538Z,50.35
2023-12-26T01:05:56.369Z,48.37
2023-12-26T01:08:23.165Z,48.01
2023-12-26T01:10:50.245Z,47.56
2023-12-26T01:13:16.934Z,47.02
2023-12-26T01:15:43.686Z,48.43
2023-12-26T01:18:10.567Z,47.77
2023-12-26T01:20:37.459Z,46.48
2023-12-26T01:23:04.437Z,47.39
2023-12-26T01:25:31.339Z,49.16
2023-12-26T01:27:58.079Z,49.38
2023-12-26T01:30:25.833Z,49.64
2023-12-26T01:32:52.793Z,51.06
2023-12-26T01:35:19.672Z,51.68
2023-12-26T01:37:46.400Z,49.88
2023-12-26T01:40:13.449Z,52.66
2023-12-26T01:42:42.669Z,54.47
2023-12-26T01:45:09.740Z,51.34
2023-12-26T01:47:38.487Z,49.87
2023-12-26T01:50:06.562Z,50.45
2023-12-26T01:52:33.459Z,50.14
2023-12-26T01:55:00.713Z,49.87
2023-12-26T01:57:27.721Z,50.11
2023-12-26T01:59:54.530Z,53.08
2023-12-26T02:02:24.118Z,53.60
2023-12-26T02:04:50.981Z,53.01
2023-12-26T02:07:17.705Z,53.69
2023-12-26T02:09:44.957Z,55.28
2023-12-26T02:12:12.123Z,55.46
2023-12-26T02:14:38.987Z,55.09
2023-12-26T02:17:08.259Z,55.87
2023-12-26T02:19:44.286Z,57.33
2023-12-26T02:22:11.028Z,56.48
2023-12-26T02:24:37.829Z,56.49
2023-12-26T02:27:05.819Z,57.24
2023-12-26T02:29:33.169Z,58.96
2023-12-26T02:32:02.789Z,59.05
2023-12-26T02:34:31.130Z,58.31
2023-12-26T02:36:58.433Z,59.70
2023-12-26T02:39:25.158Z,62.18
2023-12-26T02:41:51.866Z,61.08
2023-12-26T02:44:18.560Z,60.28
2023-12-26T02:46:45.306Z,59.30
2023-12-26T02:49:12.260Z,58.96
2023-12-26T02:51:39.134Z,58.36
2023-12-26T02:54:05.987Z,58.66
2023-12-26T02:56:32.699Z,58.64
2023-12-26T02:58:59.508Z,58.48
2023-12-26T03:01:26.253Z,58.30
2023-12-26T03:03:53.077Z,58.88
2023-12-26T03:06:19.886Z,58.09
2023-12-26T03:08:46.654Z,57.58
2023-12-26T03:11:13.364Z,57.81
2023-12-26T03:13:40.034Z,57.50
2023-12-26T03:16:06.961Z,57.65
2023-12-26T03:18:33.749Z,57.70
2023-12-26T03:21:00.558Z,58.05
2023-12-26T03:23:27.405Z,57.88
2023-12-26T03:25:54.121Z,56.60
2023-12-26T03:28:20.801Z,56.35
2023-12-26T03:30:51.254Z,55.66
2023-12-26T03:33:18.393Z,55.78
2023-12-26T03:35:45.302Z,55.37
2023-12-26T03:38:12.177Z,55.85
2023-12-26T03:40:38.868Z,55.49
2023-12-26T03:43:08.296Z,54.93
2023-12-26T03:45:34.976Z,53.67
2023-12-26T03:48:01.783Z,53.01
2023-12-26T03:50:28.546Z,53.17
2023-12-26T03:52:55.501Z,52.35
2023-12-26T03:55:22.505Z,52.14
2023-12-26T03:57:49.243Z,52.24
2023-12-26T04:00:16.834Z,51.24
2023-12-26T04:02:43.873Z,51.40
2023-12-26T04:05:10.660Z,51.16
2023-12-26T04:07:37.787Z,50.21
2023-12-26T04:10:04.698Z,50.15
2023-12-26T04:12:43.591Z,49.87
2023-12-26T04:15:10.993Z,50.66
2023-12-26T04:17:37.926Z,50.10
2023-12-26T04:20:05.119Z,52.16
2023-12-26T04:22:31.885Z,50.41
2023-12-26T04:24:58.568Z,50.07
2023-12-26T04:27:25.284Z,49.64
2023-12-26T04:29:52.035Z,48.73
2023-12-26T04:32:18.728Z,50.00
2023-12-26T04:34:45.456Z,49.85
2023-12-26T04:37:12.230Z,52.37
2023-12-26T04:39:38.884Z,51.39
2023-12-26T04:42:05.713Z,54.61
2023-12-26T04:44:32.425Z,53.13
2023-12-26T04:46:59.116Z,52.89
2023-12-26T04:49:25.962Z,53.11
2023-12-26T04:51:52.672Z,53.49
2023-12-26T04:54:19.383Z,51.46
2023-12-26T04:56:46.114Z,53.48
2023-12-26T04:59:12.881Z,52.97
2023-12-26T05:01:42.757Z,51.33
2023-12-26T05:04:09.519Z,51.92
2023-12-26T05:06:36.330Z,51.73
2023-12-26T05:09:03.109Z,50.84
2023-12-26T05:11:29.933Z,49.65
2023-12-26T05:13:56.689Z,50.36
2023-12-26T05:16:23.481Z,50.49
2023-12-26T05:18:50.445Z,49.81
2023-12-26T05:21:22.487Z,51.22
2023-12-26T05:23:49.721Z,50.96
2023-12-26T05:26:17.068Z,50.93
2023-12-26T05:28:43.765Z,50.00
2023-12-26T05:31:10.630Z,49.89
2023-12-26T05:33:37.772Z,50.52
2023-12-26T05:36:04.890Z,50.17
2023-12-26T05:38:31.610Z,51.06
2023-12-26T05:40:58.315Z,50.77
2023-12-26T05:43:24.971Z,50.42
2023-12-26T05:45:51.657Z,50.78
2023-12-26T05:48:18.497Z,49.74
2023-12-26T05:50:45.382Z,51.60
2023-12-26T05:53:12.144Z,50.92
2023-12-26T05:55:38.847Z,51.60
2023-12-26T05:58:05.826Z,50.25
2023-12-26T06:00:32.515Z,51.22
2023-12-26T06:02:59.397Z,51.14
2023-12-26T06:05:26.297Z,51.42
2023-12-26T06:07:52.993Z,51.76
2023-12-26T06:10:20.276Z,52.03
2023-12-26T06:12:46.953Z,51.47
2023-12-26T06:15:13.736Z,51.40
2023-12-26T06:17:40.600Z,52.08
2023-12-26T06:20:08.119Z,51.96
2023-12-26T06:22:34.845Z,52.32
2023-12-26T06:25:01.539Z,52.63
2023-12-26T06:27:28.196Z,53.04
2023-12-26T06:29:54.892Z,54.95
2023-12-26T06:32:21.643Z,52.98
2023-12-26T06:34:48.397Z,52.26
2023-12-26T06:37:15.106Z,51.38
2023-12-26T06:39:41.768Z,52.61
2023-12-26T06:42:08.456Z,51.69
2023-12-26T06:44:35.167Z,51.33
2023-12-26T06:47:02.500Z,51.57
2023-12-26T06:49:29.235Z,51.78
2023-12-26T06:51:56.073Z,51.87
2023-12-26T06:54:22.749Z,51.00
2023-12-26T06:56:49.535Z,52.75
2023-12-26T06:59:16.212Z,53.56
2023-12-26T07:01:48.947Z,54.17
2023-12-26T07:04:15.809Z,53.05
2023-12-26T07:06:42.729Z,53.47
2023-12-26T07:09:09.382Z,52.75
2023-12-26T07:11:36.055Z,52.73
2023-12-26T07:14:02.746Z,52.65
2023-12-26T07:16:30.851Z,52.97
2023-12-26T07:18:57.627Z,54.87
2023-12-26T07:21:24.370Z,53.68
2023-12-26T07:23:51.045Z,53.49
2023-12-26T07:26:17.769Z,53.17
2023-12-26T07:28:44.463Z,55.06
2023-12-26T07:31:18.686Z,56.01
2023-12-26T07:33:45.574Z,56.37
2023-12-26T07:36:12.692Z,58.12
2023-12-26T07:38:39.461Z,56.55
2023-12-26T07:41:06.133Z,55.23
2023-12-26T07:43:33.643Z,53.60
2023-12-26T07:46:00.361Z,52.34
2023-12-26T07:48:27.392Z,52.46
2023-12-26T07:50:54.293Z,52.12
2023-12-26T07:53:23.871Z,53.94
2023-12-26T07:55:50.750Z,52.71
2023-12-26T07:58:17.476Z,53.32
2023-12-26T08:00:44.277Z,52.93
2023-12-26T08:03:11.111Z,53.73
2023-12-26T08:05:37.997Z,53.02
2023-12-26T08:08:05.047Z,53.51
2023-12-26T08:10:31.717Z,52.66
2023-12-26T08:12:58.607Z,55.01
2023-12-26T08:15:25.394Z,56.14
2023-12-26T08:17:52.201Z,53.58
2023-12-26T08:20:18.939Z,54.26
2023-12-26T08:22:45.603Z,55.03
2023-12-26T08:25:12.330Z,55.59
2023-12-26T08:27:39.001Z,54.58
2023-12-26T08:30:06.244Z,54.54
2023-12-26T08:32:32.987Z,54.96
2023-12-26T08:34:59.709Z,53.05
2023-12-26T08:37:26.795Z,53.33
2023-12-26T08:39:53.476Z,52.88
2023-12-26T08:42:28.777Z,52.91
2023-12-26T08:44:55.532Z,52.01
2023-12-26T08:47:22.392Z,51.85
2023-12-26T08:49:49.391Z,51.36
2023-12-26T08:52:16.138Z,48.24
2023-12-26T08:54:43.689Z,50.40
2023-12-26T08:57:10.858Z,48.65
2023-12-26T08:59:38.093Z,46.58
2023-12-26T09:02:05.214Z,47.14
2023-12-26T09:04:32.215Z,46.61
2023-12-26T09:06:59.136Z,44.46
2023-12-26T09:09:25.979Z,43.75
2023-12-26T09:11:52.724Z,44.08
2023-12-26T09:14:19.402Z,45.25
2023-12-26T09:16:46.174Z,43.22
2023-12-26T09:19:13.361Z,42.53
2023-12-26T09:21:40.174Z,42.21
2023-12-26T09:24:07.175Z,41.30
2023-12-26T09:26:33.896Z,43.20
2023-12-26T09:29:00.592Z,42.77
2023-12-26T09:31:27.324Z,42.18
2023-12-26T09:33:54.195Z,44.95
2023-12-26T09:36:21.239Z,45.32
2023-12-26T09:38:48.104Z,45.86
2023-12-26T09:41:14.893Z,42.89
2023-12-26T09:43:41.624Z,44.50
2023-12-26T09:46:08.443Z,44.09
2023-12-26T09:48:35.713Z,45.26
2023-12-26T09:51:09.536Z,43.47
2023-12-26T09:53:44.987Z,43.12
2023-12-26T09:56:12.972Z,41.96
2023-12-26T09:58:42.750Z,41.30
2023-12-26T10:01:14.031Z,43.48
2023-12-26T10:03:42.340Z,41.65
2023-12-26T10:06:09.252Z,43.72
2023-12-26T10:08:35.970Z,42.32
2023-12-26T10:11:02.650Z,41.41
2023-12-26T10:13:46.582Z,41.94
2023-12-26T10:16:13.293Z,43.62
2023-12-26T10:18:40.460Z,43.69
2023-12-26T10:21:07.555Z,41.18
2023-12-26T10:23:34.576Z,40.13
2023-12-26T10:26:02.067Z,42.31
2023-12-26T10:28:28.798Z,42.40
2023-12-26T10:30:56.487Z,43.12
2023-12-26T10:33:27.677Z,43.50
2023-12-26T10:36:08.913Z,44.61
2023-12-26T10:38:35.741Z,44.48
2023-12-26T10:41:11.349Z,43.39
2023-12-26T10:43:40.813Z,43.23
2023-12-26T10:46:08.970Z,43.74
2023-12-26T10:48:36.942Z,43.94
2023-12-26T10:51:05.970Z,44.29
2023-12-26T10:54:12.781Z,45.77
2023-12-26T10:56:41.222Z,45.81
2023-12-26T10:59:09.887Z,45.28
2023-12-26T11:02:16.560Z,45.53
2023-12-26T11:05:21.121Z,45.70
2023-12-26T11:08:25.367Z,44.28
2023-12-26T11:11:29.713Z,46.47
2023-12-26T11:14:33.646Z,42.71
2023-12-26T11:17:37.705Z,43.60
2023-12-26T11:20:42.084Z,41.81
2023-12-26T11:23:46.052Z,41.79
2023-12-26T11:26:50.392Z,41.72
2023-12-26T11:29:54.511Z,41.72
2023-12-26T11:32:58.671Z,43.05
2023-12-26T11:36:03.011Z,42.20
2023-12-26T11:39:07.109Z,40.34
2023-12-26T11:42:11.544Z,41.96
2023-12-26T11:45:15.891Z,40.67
2023-12-26T11:48:20.311Z,41.46
2023-12-26T11:51:24.877Z,39.81
2023-12-26T11:54:29.161Z,41.30
2023-12-26T11:57:33.429Z,38.77
2023-12-26T12:00:37.714Z,39.54
2023-12-26T12:03:41.998Z,40.98
2023-12-26T12:06:46.435Z,40.19
2023-12-26T12:09:50.664Z,38.61
2023-12-26T12:12:54.813Z,38.14
2023-12-26T12:15:59.112Z,39.30
2023-12-26T12:19:04.657Z,39.49
2023-12-26T12:22:10.091Z,38.80
2023-12-26T12:25:13.854Z,38.15
2023-12-26T12:28:18.260Z,39.61
2023-12-26T12:31:22.412Z,39.85
2023-12-26T12:34:26.820Z,40.72
2023-12-26T12:37:31.229Z,40.88
2023-12-26T12:40:35.344Z,40.40
2023-12-26T12:43:39.597Z,39.26
2023-12-26T12:46:44.176Z,39.16
2023-12-26T12:49:48.444Z,39.55
2023-12-26T12:52:52.943Z,41.18
2023-12-26T12:55:57.280Z,40.95
2023-12-26T12:59:01.662Z,40.57
2023-12-26T13:02:06.111Z,39.17
2023-12-26T13:05:11.089Z,37.71
2023-12-26T13:08:15.405Z,38.25
2023-12-26T13:11:19.600Z,39.71
2023-12-26T13:14:26.233Z,40.26
2023-12-26T13:17:30.689Z,40.21
2023-12-26T13:20:35.817Z,40.52
2023-12-26T13:23:40.389Z,39.63
2023-12-26T13:26:44.676Z,40.39
2023-12-26T13:29:49.350Z,40.35
2023-12-26T13:32:54.163Z,39.79
2023-12-26T13:35:58.902Z,39.44
2023-12-26T13:39:03.133Z,39.04
2023-12-26T13:42:07.374Z,38.04
2023-12-26T13:45:11.703Z,37.54
2023-12-26T13:48:16.162Z,38.04
2023-12-26T13:51:20.621Z,39.23
2023-12-26T13:53:47.454Z,38.00
2023-12-26T13:56:14.136Z,37.18
2023-12-26T13:59:18.363Z,37.11
2023-12-26T14:02:22.559Z,37.77
2023-12-26T14:05:26.803Z,37.05
2023-12-26T14:08:31.122Z,35.14
2023-12-26T14:11:35.241Z,35.63
2023-12-26T14:14:39.556Z,36.56
2023-12-26T14:17:43.939Z,35.01
2023-12-26T14:20:47.945Z,35.47
2023-12-26T14:23:52.328Z,36.60
2023-12-26T14:26:56.967Z,35.80
2023-12-26T14:30:01.239Z,36.47
2023-12-26T14:33:05.465Z,35.98
2023-12-26T14:36:10.116Z,36.76
2023-12-26T14:39:14.501Z,35.52
2023-12-26T14:42:18.671Z,36.49
2023-12-26T14:45:23.044Z,36.08
2023-12-26T14:48:27.300Z,35.84
2023-12-26T14:51:31.850Z,35.98
2023-12-26T14:54:36.219Z,35.96
2023-12-26T14:57:40.776Z,38.10
2023-12-26T15:00:44.883Z,36.23
2023-12-26T15:03:11.797Z,35.93
2023-12-26T15:05:38.802Z,36.59
2023-12-26T15:08:06.113Z,35.53
2023-12-26T15:10:33.351Z,35.45
2023-12-26T15:13:00.104Z,35.88
2023-12-26T15:15:26.829Z,36.08
2023-12-26T15:17:53.642Z,35.98
2023-12-26T15:20:20.546Z,36.14
2023-12-26T15:22:47.424Z,35.61
2023-12-26T15:25:14.784Z,35.50
2023-12-26T15:27:42.051Z,38.15
2023-12-26T15:30:10.901Z,35.96
2023-12-26T15:32:38.603Z,35.94
2023-12-26T15:35:05.955Z,34.95
2023-12-26T15:37:32.734Z,37.61
2023-12-26T15:39:59.515Z,39.01
2023-12-26T15:42:26.592Z,39.01
2023-12-26T15:44:53.419Z,40.95
2023-12-26T15:47:20.206Z,39.83
2023-12-26T15:49:47.143Z,40.17
2023-12-26T15:52:13.903Z,38.81
2023-12-26T15:54:40.650Z,39.04
2023-12-26T15:57:07.690Z,38.91
2023-12-26T15:59:34.508Z,39.79
2023-12-26T16:02:01.278Z,42.03
2023-12-26T16:04:28.047Z,42.66
2023-12-26T16:06:54.982Z,42.37
2023-12-26T16:09:21.721Z,41.74
2023-12-26T16:11:48.472Z,41.10
2023-12-26T16:14:15.224Z,42.95
2023-12-26T16:16:42.168Z,41.72
2023-12-26T16:19:10.919Z,42.33
2023-12-26T16:21:38.411Z,42.49
2023-12-26T16:24:05.275Z,41.81
2023-12-26T16:26:32.036Z,42.36
2023-12-26T16:28:58.717Z,41.82
2023-12-26T16:31:25.498Z,42.69
2023-12-26T16:33:52.466Z,42.22
2023-12-26T16:36:19.421Z,40.87
2023-12-26T16:38:46.356Z,41.41
2023-12-26T16:41:13.461Z,41.41
2023-12-26T16:43:40.363Z,42.44
2023-12-26T16:46:08.665Z,44.13
2023-12-26T16:48:41.244Z,43.37
2023-12-26T16:51:10.038Z,42.82
2023-12-26T16:53:36.965Z,42.69
2023-12-26T16:56:08.532Z,42.75
2023-12-26T16:58:35.221Z,43.70
2023-12-26T17:01:02.013Z,44.06
2023-12-26T17:03:28.810Z,44.11
2023-12-26T17:05:55.664Z,44.92
2023-12-26T17:08:22.466Z,43.59
2023-12-26T17:10:49.295Z,44.66
2023-12-26T17:13:16.204Z,45.25
2023-12-26T17:15:43.342Z,45.29
2023-12-26T17:18:10.389Z,45.13
2023-12-26T17:20:37.198Z,45.11
2023-12-26T17:23:03.984Z,45.67
2023-12-26T17:25:30.872Z,45.60
2023-12-26T17:27:57.814Z,45.29
2023-12-26T17:30:25.289Z,46.25
2023-12-26T17:32:53.681Z,46.39
2023-12-26T17:35:20.674Z,46.54
2023-12-26T17:37:47.465Z,47.69
2023-12-26T17:40:14.790Z,47.36
2023-12-26T17:42:41.544Z,48.40
2023-12-26T17:45:08.942Z,47.02
2023-12-26T17:47:35.767Z,46.86
2023-12-26T17:50:02.645Z,46.52
2023-12-26T17:52:29.437Z,45.67
2023-12-26T17:54:56.281Z,45.46
2023-12-26T17:57:23.392Z,45.31
2023-12-26T17:59:50.544Z,46.21
2023-12-26T18:02:17.365Z,45.13
2023-12-26T18:04:44.476Z,44.56
2023-12-26T18:07:11.280Z,45.92
2023-12-26T18:09:38.992Z,46.90
2023-12-26T18:12:06.498Z,46.76
2023-12-26T18:14:33.356Z,46.96
2023-12-26T18:17:00.130Z,46.69
2023-12-26T18:19:27.178Z,45.66
2023-12-26T18:21:54.022Z,45.57
2023-12-26T18:24:21.490Z,47.34
2023-12-26T18:26:48.316Z,48.08
2023-12-26T18:29:15.034Z,46.89
2023-12-26T18:31:45.495Z,46.58
2023-12-26T18:34:12.771Z,45.95
2023-12-26T18:36:39.659Z,46.29
2023-12-26T18:39:06.438Z,45.89
2023-12-26T18:41:33.296Z,47.05
2023-12-26T18:44:00.048Z,47.73
2023-12-26T18:46:26.859Z,46.47
2023-12-26T18:48:53.634Z,47.08
2023-12-26T18:51:26.886Z,46.01
2023-12-26T18:53:53.774Z,46.18
2023-12-26T18:56:20.529Z,45.08
2023-12-26T18:58:47.318Z,46.17
2023-12-26T19:01:14.627Z,46.85
2023-12-26T19:03:41.636Z,46.79
2023-12-26T19:06:09.314Z,46.98
2023-12-26T19:08:36.288Z,47.13
2023-12-26T19:11:03.034Z,46.56
2023-12-26T19:13:29.737Z,45.59
2023-12-26T19:15:56.423Z,45.24
2023-12-26T19:18:23.878Z,45.40
2023-12-26T19:20:50.880Z,45.91
2023-12-26T19:23:18.008Z,45.50
2023-12-26T19:25:44.707Z,45.34
2023-12-26T19:28:11.888Z,45.03
2023-12-26T19:30:39.095Z,45.69
2023-12-26T19:33:06.221Z,45.75
2023-12-26T19:35:33.231Z,45.43
2023-12-26T19:38:00.176Z,46.30
2023-12-26T19:40:26.887Z,47.41
2023-12-26T19:42:54.096Z,46.71
2023-12-26T19:45:20.948Z,46.52
2023-12-26T19:47:47.779Z,45.09
2023-12-26T19:50:14.511Z,44.96
2023-12-26T19:52:41.320Z,45.12
2023-12-26T19:55:08.321Z,45.10
2023-12-26T19:57:35.171Z,45.98
2023-12-26T20:00:02.113Z,46.51
2023-12-26T20:02:28.825Z,46.75
2023-12-26T20:04:55.614Z,46.50
2023-12-26T20:07:22.381Z,45.97
2023-12-26T20:09:49.057Z,46.52
2023-12-26T20:12:15.879Z,46.25
2023-12-26T20:14:42.748Z,46.70
2023-12-26T20:17:09.505Z,46.42
2023-12-26T20:19:37.813Z,46.77
2023-12-26T20:22:04.700Z,47.76
2023-12-26T20:24:31.587Z,47.39
2023-12-26T20:26:58.357Z,47.95
2023-12-26T20:29:25.114Z,47.04
2023-12-26T20:31:52.754Z,47.11
2023-12-26T20:34:23.516Z,47.41
2023-12-26T20:36:50.838Z,46.90
2023-12-26T20:39:19.294Z,46.79
2023-12-26T20:41:49.451Z,46.97
2023-12-26T20:44:16.198Z,46.98
2023-12-26T20:46:47.253Z,46.66
2023-12-26T20:49:14.526Z,46.82
2023-12-26T20:51:42.728Z,46.79
2023-12-26T20:54:12.392Z,47.52
2023-12-26T20:56:41.213Z,47.35
2023-12-26T20:59:08.195Z,47.29
2023-12-26T21:01:35.655Z,47.38
2023-12-26T21:04:04.369Z,47.27
2023-12-26T21:06:32.015Z,46.66
2023-12-26T21:09:01.260Z,47.14
2023-12-26T21:11:28.060Z,46.94
2023-12-26T21:13:54.785Z,47.22
2023-12-26T21:16:21.859Z,47.03
2023-12-26T21:18:53.391Z,46.74
2023-12-26T21:21:22.274Z,46.35
2023-12-26T21:23:49.669Z,46.34
2023-12-26T21:26:20.978Z,46.32
2023-12-26T21:28:48.158Z,46.15
2023-12-26T21:31:15.350Z,46.02
2023-12-26T21:33:43.992Z,46.15
2023-12-26T21:36:18.385Z,46.43
2023-12-26T21:38:45.297Z,46.38
2023-12-26T21:41:13.342Z,47.19
2023-12-26T21:43:40.082Z,46.70
2023-12-26T21:46:13.462Z,46.80
2023-12-26T21:48:41.440Z,46.10
2023-12-26T21:51:13.375Z,46.07
2023-12-26T21:53:40.833Z,46.20
2023-12-26T21:56:09.139Z,46.68
2023-12-26T21:58:36.559Z,46.62
2023-12-26T22:01:03.799Z,47.89
2023-12-26T22:03:30.629Z,48.51
2023-12-26T22:05:57.610Z,48.83
2023-12-26T22:08:25.296Z,49.16
2023-12-26T22:10:54.588Z,50.15
2023-12-26T22:13:21.751Z,50.58
2023-12-26T22:15:49.225Z,49.69
2023-12-26T22:18:16.256Z,50.68
2023-12-26T22:20:43.899Z,49.90
2023-12-26T22:23:10.664Z,47.38
2023-12-26T22:25:37.403Z,47.84
2023-12-26T22:28:04.355Z,49.01
2023-12-26T22:30:33.243Z,49.87
2023-12-26T22:33:01.126Z,48.55
2023-12-26T22:35:28.231Z,47.77
2023-12-26T22:37:55.378Z,47.84
2023-12-26T22:40:22.388Z,47.65
2023-12-26T22:42:49.072Z,48.56
2023-12-26T22:45:16.028Z,48.07
2023-12-26T22:47:42.785Z,48.11
2023-12-26T22:50:09.762Z,48.49
2023-12-26T22:52:38.163Z,48.72
2023-12-26T22:55:05.650Z,48.84
2023-12-26T22:57:32.452Z,49.95
2023-12-26T22:59:59.201Z,49.94
2023-12-26T23:02:25.928Z,49.22
2023-12-26T23:04:52.629Z,50.14
2023-12-26T23:07:19.446Z,50.97
2023-12-26T23:09:46.140Z,51.31
2023-12-26T23:12:12.854Z,51.17
2023-12-26T23:14:39.571Z,51.42
2023-12-26T23:17:06.285Z,51.46
2023-12-26T23:19:33.033Z,51.53
2023-12-26T23:21:59.914Z,51.60
2023-12-26T23:24:26.631Z,51.43
2023-12-26T23:26:53.451Z,51.91
2023-12-26T23:29:20.243Z,52.85
2023-12-26T23:31:49.293Z,53.67
2023-12-26T23:34:18.202Z,53.88
2023-12-26T23:36:46.890Z,53.74
2023-12-26T23:39:13.717Z,53.61
2023-12-26T23:41:40.499Z,52.67
2023-12-26T23:44:08.362Z,52.98
2023-12-26T23:46:35.323Z,53.28
2023-12-26T23:49:02.238Z,53.49
2023-12-26T23:51:29.247Z,52.87
2023-12-26T23:53:56.034Z,53.37
2023-12-26T23:56:23.128Z,53.43
2023-12-26T23:58:49.904Z,52.95
